sensor_id;sensor_type;location;lat;lon;timestamp;temperature;humidity
11112;DHT22;5609;49.466;8.468;2022-07-23T00:00:05;24.80;99.90
11112;DHT22;5609;49.466;8.468;2022-07-23T00:02:33;24.80;99.90
11112;DHT22;5609;49.466;8.468;2022-07-23T00:05:01;24.80;99.90
11112;DHT22;5609;49.466;8.468;2022-07-23T00:07:28;24.80;99.90
11112;DHT22;5609;49.466;8.468;2022-07-23T00:09:54;24.80;99.90
11112;DHT22;5609;49.466;8.468;2022-07-23T00:12:21;24.70;99.90
11112;DHT22;5609;49.466;8.468;2022-07-23T00:14:48;24.80;99.90
11112;DHT22;5609;49.466;8.468;2022-07-23T00:17:15;24.70;99.90
11112;DHT22;5609;49.466;8.468;2022-07-23T00:19:42;24.60;99.90
11112;DHT22;5609;49.466;8.468;2022-07-23T00:22:10;24.50;99.90
11112;DHT22;5609;49.466;8.468;2022-07-23T00:24:37;24.50;99.90
11112;DHT22;5609;49.466;8.468;2022-07-23T00:27:04;24.50;99.90
11112;DHT22;5609;49.466;8.468;2022-07-23T00:29:31;24.40;99.90
11112;DHT22;5609;49.466;8.468;2022-07-23T00:31:58;24.40;99.90
11112;DHT22;5609;49.466;8.468;2022-07-23T00:34:24;24.40;99.90
11112;DHT22;5609;49.466;8.468;2022-07-23T00:36:51;24.40;99.90
11112;DHT22;5609;49.466;8.468;2022-07-23T00:39:20;24.30;99.90
11112;DHT22;5609;49.466;8.468;2022-07-23T00:41:48;24.30;99.90
11112;DHT22;5609;49.466;8.468;2022-07-23T00:44:20;24.40;99.90
11112;DHT22;5609;49.466;8.468;2022-07-23T00:46:48;24.30;99.90
11112;DHT22;5609;49.466;8.468;2022-07-23T00:49:15;24.20;99.90
11112;DHT22;5609;49.466;8.468;2022-07-23T00:51:42;24.10;99.90
11112;DHT22;5609;49.466;8.468;2022-07-23T00:54:09;24.20;99.90
11112;DHT22;5609;49.466;8.468;2022-07-23T00:56:38;24.20;99.90
11112;DHT22;5609;49.466;8.468;2022-07-23T00:59:06;24.10;99.90
11112;DHT22;5609;49.466;8.468;2022-07-23T01:01:33;24.10;99.90
11112;DHT22;5609;49.466;8.468;2022-07-23T01:04:00;24.10;99.90
11112;DHT22;5609;49.466;8.468;2022-07-23T01:06:27;24.10;99.90
11112;DHT22;5609;49.466;8.468;2022-07-23T01:08:54;23.90;99.90
11112;DHT22;5609;49.466;8.468;2022-07-23T01:11:23;24.00;99.90
11112;DHT22;5609;49.466;8.468;2022-07-23T01:13:51;23.90;99.90
11112;DHT22;5609;49.466;8.468;2022-07-23T01:16:19;23.90;99.90
11112;DHT22;5609;49.466;8.468;2022-07-23T01:18:46;23.90;99.90
11112;DHT22;5609;49.466;8.468;2022-07-23T01:21:12;24.00;99.90
11112;DHT22;5609;49.466;8.468;2022-07-23T01:23:41;24.00;99.90
11112;DHT22;5609;49.466;8.468;2022-07-23T01:26:08;24.00;99.90
11112;DHT22;5609;49.466;8.468;2022-07-23T01:28:35;24.00;99.90
11112;DHT22;5609;49.466;8.468;2022-07-23T01:31:02;24.00;99.90
11112;DHT22;5609;49.466;8.468;2022-07-23T01:33:29;24.00;99.90
11112;DHT22;5609;49.466;8.468;2022-07-23T01:35:55;23.90;99.90
11112;DHT22;5609;49.466;8.468;2022-07-23T01:38:22;23.90;99.90
11112;DHT22;5609;49.466;8.468;2022-07-23T01:40:50;23.90;99.90
11112;DHT22;5609;49.466;8.468;2022-07-23T01:43:17;23.90;99.90
11112;DHT22;5609;49.466;8.468;2022-07-23T01:45:44;23.80;99.90
11112;DHT22;5609;49.466;8.468;2022-07-23T01:48:11;23.80;99.90
11112;DHT22;5609;49.466;8.468;2022-07-23T01:50:39;23.70;99.90
11112;DHT22;5609;49.466;8.468;2022-07-23T01:53:05;23.70;99.90
11112;DHT22;5609;49.466;8.468;2022-07-23T01:55:32;23.60;99.90
11112;DHT22;5609;49.466;8.468;2022-07-23T01:58:00;23.60;99.90
11112;DHT22;5609;49.466;8.468;2022-07-23T02:00:27;23.60;99.90
11112;DHT22;5609;49.466;8.468;2022-07-23T02:02:54;23.50;99.90
11112;DHT22;5609;49.466;8.468;2022-07-23T02:05:21;23.50;99.90
11112;DHT22;5609;49.466;8.468;2022-07-23T02:07:48;23.50;99.90
11112;DHT22;5609;49.466;8.468;2022-07-23T02:10:15;23.50;99.90
11112;DHT22;5609;49.466;8.468;2022-07-23T02:12:41;23.50;99.90
11112;DHT22;5609;49.466;8.468;2022-07-23T02:15:10;23.50;99.90
11112;DHT22;5609;49.466;8.468;2022-07-23T02:17:36;23.50;99.90
11112;DHT22;5609;49.466;8.468;2022-07-23T02:20:04;23.50;99.90
11112;DHT22;5609;49.466;8.468;2022-07-23T02:22:31;23.50;99.90
11112;DHT22;5609;49.466;8.468;2022-07-23T02:24:58;23.50;99.90
11112;DHT22;5609;49.466;8.468;2022-07-23T02:27:25;23.40;99.90
11112;DHT22;5609;49.466;8.468;2022-07-23T02:29:53;23.30;99.90
11112;DHT22;5609;49.466;8.468;2022-07-23T02:32:22;23.20;99.90
11112;DHT22;5609;49.466;8.468;2022-07-23T02:34:48;23.20;99.90
11112;DHT22;5609;49.466;8.468;2022-07-23T02:37:15;23.20;99.90
11112;DHT22;5609;49.466;8.468;2022-07-23T02:39:42;23.20;99.90
11112;DHT22;5609;49.466;8.468;2022-07-23T02:42:09;23.10;99.90
11112;DHT22;5609;49.466;8.468;2022-07-23T02:44:36;23.10;99.90
11112;DHT22;5609;49.466;8.468;2022-07-23T02:47:03;23.10;99.90
11112;DHT22;5609;49.466;8.468;2022-07-23T02:49:31;23.10;99.90
11112;DHT22;5609;49.466;8.468;2022-07-23T02:51:58;23.10;99.90
11112;DHT22;5609;49.466;8.468;2022-07-23T02:54:25;23.00;99.90
11112;DHT22;5609;49.466;8.468;2022-07-23T02:56:52;23.00;99.90
11112;DHT22;5609;49.466;8.468;2022-07-23T02:59:19;23.10;99.90
11112;DHT22;5609;49.466;8.468;2022-07-23T03:01:45;23.10;99.90
11112;DHT22;5609;49.466;8.468;2022-07-23T03:04:12;23.10;99.90
11112;DHT22;5609;49.466;8.468;2022-07-23T03:09:09;23.30;99.90
11112;DHT22;5609;49.466;8.468;2022-07-23T03:11:36;23.30;99.90
11112;DHT22;5609;49.466;8.468;2022-07-23T03:14:03;23.20;99.90
11112;DHT22;5609;49.466;8.468;2022-07-23T03:16:30;23.10;99.90
11112;DHT22;5609;49.466;8.468;2022-07-23T03:18:56;23.00;99.90
11112;DHT22;5609;49.466;8.468;2022-07-23T03:21:23;23.00;99.90
11112;DHT22;5609;49.466;8.468;2022-07-23T03:23:50;22.80;99.90
11112;DHT22;5609;49.466;8.468;2022-07-23T03:26:19;22.80;99.90
11112;DHT22;5609;49.466;8.468;2022-07-23T03:28:45;22.70;99.90
11112;DHT22;5609;49.466;8.468;2022-07-23T03:31:12;22.70;99.90
11112;DHT22;5609;49.466;8.468;2022-07-23T03:33:39;22.70;99.90
11112;DHT22;5609;49.466;8.468;2022-07-23T03:36:07;22.60;99.90
11112;DHT22;5609;49.466;8.468;2022-07-23T03:38:34;22.50;99.90
11112;DHT22;5609;49.466;8.468;2022-07-23T03:41:01;22.50;99.90
11112;DHT22;5609;49.466;8.468;2022-07-23T03:43:29;22.50;99.90
11112;DHT22;5609;49.466;8.468;2022-07-23T03:45:56;22.50;99.90
11112;DHT22;5609;49.466;8.468;2022-07-23T03:48:23;22.50;99.90
11112;DHT22;5609;49.466;8.468;2022-07-23T03:50:50;22.40;99.90
11112;DHT22;5609;49.466;8.468;2022-07-23T03:53:16;22.30;99.90
11112;DHT22;5609;49.466;8.468;2022-07-23T03:55:43;22.30;99.90
11112;DHT22;5609;49.466;8.468;2022-07-23T03:58:10;22.20;99.90
11112;DHT22;5609;49.466;8.468;2022-07-23T04:00:38;22.20;99.90
11112;DHT22;5609;49.466;8.468;2022-07-23T04:03:05;22.20;99.90
11112;DHT22;5609;49.466;8.468;2022-07-23T04:05:32;22.20;99.90
11112;DHT22;5609;49.466;8.468;2022-07-23T04:07:59;22.10;99.90
11112;DHT22;5609;49.466;8.468;2022-07-23T04:10:25;22.20;99.90
11112;DHT22;5609;49.466;8.468;2022-07-23T04:12:52;22.10;99.90
11112;DHT22;5609;49.466;8.468;2022-07-23T04:15:19;22.00;99.90
11112;DHT22;5609;49.466;8.468;2022-07-23T04:17:47;22.00;99.90
11112;DHT22;5609;49.466;8.468;2022-07-23T04:20:14;21.90;99.90
11112;DHT22;5609;49.466;8.468;2022-07-23T04:22:41;21.90;99.90
11112;DHT22;5609;49.466;8.468;2022-07-23T04:25:08;21.80;99.90
11112;DHT22;5609;49.466;8.468;2022-07-23T04:27:35;21.80;99.90
11112;DHT22;5609;49.466;8.468;2022-07-23T04:30:01;21.70;99.90
11112;DHT22;5609;49.466;8.468;2022-07-23T04:32:28;21.80;99.90
11112;DHT22;5609;49.466;8.468;2022-07-23T04:34:56;21.70;99.90
11112;DHT22;5609;49.466;8.468;2022-07-23T04:37:23;21.70;99.90
11112;DHT22;5609;49.466;8.468;2022-07-23T04:39:50;21.60;99.90
11112;DHT22;5609;49.466;8.468;2022-07-23T04:42:17;21.50;99.90
11112;DHT22;5609;49.466;8.468;2022-07-23T04:44:44;21.50;99.90
11112;DHT22;5609;49.466;8.468;2022-07-23T04:47:11;21.30;99.90
11112;DHT22;5609;49.466;8.468;2022-07-23T04:49:37;21.30;99.90
11112;DHT22;5609;49.466;8.468;2022-07-23T04:52:05;21.10;99.90
11112;DHT22;5609;49.466;8.468;2022-07-23T04:54:32;21.00;99.90
11112;DHT22;5609;49.466;8.468;2022-07-23T04:56:59;20.80;99.90
11112;DHT22;5609;49.466;8.468;2022-07-23T04:59:26;20.80;99.90
11112;DHT22;5609;49.466;8.468;2022-07-23T05:01:53;20.60;99.90
11112;DHT22;5609;49.466;8.468;2022-07-23T05:04:19;20.60;99.90
11112;DHT22;5609;49.466;8.468;2022-07-23T05:06:46;20.50;99.90
11112;DHT22;5609;49.466;8.468;2022-07-23T05:09:14;20.50;99.90
11112;DHT22;5609;49.466;8.468;2022-07-23T05:11:41;20.40;99.90
11112;DHT22;5609;49.466;8.468;2022-07-23T05:14:08;20.30;99.90
11112;DHT22;5609;49.466;8.468;2022-07-23T05:16:37;20.30;99.90
11112;DHT22;5609;49.466;8.468;2022-07-23T05:19:04;20.30;99.90
11112;DHT22;5609;49.466;8.468;2022-07-23T05:21:31;20.30;99.90
11112;DHT22;5609;49.466;8.468;2022-07-23T05:23:58;20.20;99.90
11112;DHT22;5609;49.466;8.468;2022-07-23T05:26:26;20.20;99.90
11112;DHT22;5609;49.466;8.468;2022-07-23T05:28:53;20.20;99.90
11112;DHT22;5609;49.466;8.468;2022-07-23T05:31:20;20.20;99.90
11112;DHT22;5609;49.466;8.468;2022-07-23T05:33:47;20.20;99.90
11112;DHT22;5609;49.466;8.468;2022-07-23T05:36:13;20.20;99.90
11112;DHT22;5609;49.466;8.468;2022-07-23T05:38:40;20.30;99.90
11112;DHT22;5609;49.466;8.468;2022-07-23T05:41:07;20.40;99.90
11112;DHT22;5609;49.466;8.468;2022-07-23T05:43:35;20.50;99.90
11112;DHT22;5609;49.466;8.468;2022-07-23T05:46:02;20.60;99.90
11112;DHT22;5609;49.466;8.468;2022-07-23T05:48:29;20.50;99.90
11112;DHT22;5609;49.466;8.468;2022-07-23T05:50:55;20.60;99.90
11112;DHT22;5609;49.466;8.468;2022-07-23T05:53:22;20.70;99.90
11112;DHT22;5609;49.466;8.468;2022-07-23T05:55:49;20.70;99.90
11112;DHT22;5609;49.466;8.468;2022-07-23T05:58:16;20.80;99.90
11112;DHT22;5609;49.466;8.468;2022-07-23T06:00:44;20.70;99.90
11112;DHT22;5609;49.466;8.468;2022-07-23T06:03:11;20.80;99.90
11112;DHT22;5609;49.466;8.468;2022-07-23T06:05:38;20.80;99.90
11112;DHT22;5609;49.466;8.468;2022-07-23T06:08:04;20.90;99.90
11112;DHT22;5609;49.466;8.468;2022-07-23T06:10:31;21.00;99.90
11112;DHT22;5609;49.466;8.468;2022-07-23T06:12:58;21.20;99.90
11112;DHT22;5609;49.466;8.468;2022-07-23T06:15:25;21.20;99.90
11112;DHT22;5609;49.466;8.468;2022-07-23T06:17:53;21.40;99.90
11112;DHT22;5609;49.466;8.468;2022-07-23T06:20:20;21.40;99.90
11112;DHT22;5609;49.466;8.468;2022-07-23T06:22:47;21.40;99.90
11112;DHT22;5609;49.466;8.468;2022-07-23T06:25:13;21.50;99.90
11112;DHT22;5609;49.466;8.468;2022-07-23T06:27:41;21.50;99.90
11112;DHT22;5609;49.466;8.468;2022-07-23T06:30:09;21.60;99.90
11112;DHT22;5609;49.466;8.468;2022-07-23T06:32:36;21.60;99.90
11112;DHT22;5609;49.466;8.468;2022-07-23T06:35:05;21.70;99.90
11112;DHT22;5609;49.466;8.468;2022-07-23T06:37:32;21.70;99.90
11112;DHT22;5609;49.466;8.468;2022-07-23T06:39:59;21.80;99.90
11112;DHT22;5609;49.466;8.468;2022-07-23T06:42:26;21.80;99.90
11112;DHT22;5609;49.466;8.468;2022-07-23T06:44:52;21.80;99.90
11112;DHT22;5609;49.466;8.468;2022-07-23T06:47:19;21.80;99.90
11112;DHT22;5609;49.466;8.468;2022-07-23T06:49:46;21.80;99.90
11112;DHT22;5609;49.466;8.468;2022-07-23T06:52:14;21.70;99.90
11112;DHT22;5609;49.466;8.468;2022-07-23T06:54:41;21.70;99.90
11112;DHT22;5609;49.466;8.468;2022-07-23T06:57:08;21.70;99.90
11112;DHT22;5609;49.466;8.468;2022-07-23T06:59:34;21.70;99.90
11112;DHT22;5609;49.466;8.468;2022-07-23T07:02:06;21.60;99.90
11112;DHT22;5609;49.466;8.468;2022-07-23T07:04:32;21.60;99.90
11112;DHT22;5609;49.466;8.468;2022-07-23T07:06:59;21.50;99.90
11112;DHT22;5609;49.466;8.468;2022-07-23T07:09:28;21.60;99.90
11112;DHT22;5609;49.466;8.468;2022-07-23T07:11:55;21.60;99.90
11112;DHT22;5609;49.466;8.468;2022-07-23T07:14:22;21.80;99.90
11112;DHT22;5609;49.466;8.468;2022-07-23T07:16:49;21.90;99.90
11112;DHT22;5609;49.466;8.468;2022-07-23T07:19:16;22.10;99.90
11112;DHT22;5609;49.466;8.468;2022-07-23T07:21:42;22.20;99.90
11112;DHT22;5609;49.466;8.468;2022-07-23T07:24:09;22.30;99.90
11112;DHT22;5609;49.466;8.468;2022-07-23T07:26:37;22.40;99.90
11112;DHT22;5609;49.466;8.468;2022-07-23T07:29:05;22.60;99.90
11112;DHT22;5609;49.466;8.468;2022-07-23T07:31:32;22.90;99.90
11112;DHT22;5609;49.466;8.468;2022-07-23T07:33:59;23.30;99.90
11112;DHT22;5609;49.466;8.468;2022-07-23T07:36:25;23.70;99.90
11112;DHT22;5609;49.466;8.468;2022-07-23T07:38:53;24.00;99.90
11112;DHT22;5609;49.466;8.468;2022-07-23T07:41:19;24.20;99.90
11112;DHT22;5609;49.466;8.468;2022-07-23T07:43:50;24.40;99.90
11112;DHT22;5609;49.466;8.468;2022-07-23T07:46:17;24.40;99.90
11112;DHT22;5609;49.466;8.468;2022-07-23T07:48:44;24.50;99.90
11112;DHT22;5609;49.466;8.468;2022-07-23T07:51:11;24.60;99.90
11112;DHT22;5609;49.466;8.468;2022-07-23T07:53:38;25.00;99.90
11112;DHT22;5609;49.466;8.468;2022-07-23T07:56:05;25.30;99.90
11112;DHT22;5609;49.466;8.468;2022-07-23T07:58:32;25.40;99.90
11112;DHT22;5609;49.466;8.468;2022-07-23T08:01:00;25.50;99.90
11112;DHT22;5609;49.466;8.468;2022-07-23T08:03:28;25.60;99.90
11112;DHT22;5609;49.466;8.468;2022-07-23T08:05:55;25.70;99.90
11112;DHT22;5609;49.466;8.468;2022-07-23T08:08:21;25.60;99.90
11112;DHT22;5609;49.466;8.468;2022-07-23T08:10:48;25.30;99.90
11112;DHT22;5609;49.466;8.468;2022-07-23T08:13:15;25.00;99.90
11112;DHT22;5609;49.466;8.468;2022-07-23T08:15:43;24.90;99.90
11112;DHT22;5609;49.466;8.468;2022-07-23T08:18:11;24.80;99.90
11112;DHT22;5609;49.466;8.468;2022-07-23T08:20:38;24.80;99.90
11112;DHT22;5609;49.466;8.468;2022-07-23T08:23:06;24.80;99.90
11112;DHT22;5609;49.466;8.468;2022-07-23T08:25:35;24.70;99.90
11112;DHT22;5609;49.466;8.468;2022-07-23T08:28:06;24.90;99.90
11112;DHT22;5609;49.466;8.468;2022-07-23T08:30:34;25.00;99.90
11112;DHT22;5609;49.466;8.468;2022-07-23T08:33:02;25.10;99.90
11112;DHT22;5609;49.466;8.468;2022-07-23T08:35:32;25.40;99.90
11112;DHT22;5609;49.466;8.468;2022-07-23T08:38:01;25.70;99.90
11112;DHT22;5609;49.466;8.468;2022-07-23T08:40:29;25.80;99.90
11112;DHT22;5609;49.466;8.468;2022-07-23T08:42:57;25.80;99.90
11112;DHT22;5609;49.466;8.468;2022-07-23T08:45:25;25.80;99.90
11112;DHT22;5609;49.466;8.468;2022-07-23T08:47:54;25.90;99.90
11112;DHT22;5609;49.466;8.468;2022-07-23T08:50:22;26.00;99.90
11112;DHT22;5609;49.466;8.468;2022-07-23T08:52:52;26.10;99.90
11112;DHT22;5609;49.466;8.468;2022-07-23T08:55:20;26.20;99.90
11112;DHT22;5609;49.466;8.468;2022-07-23T08:57:50;26.40;99.90
11112;DHT22;5609;49.466;8.468;2022-07-23T09:00:18;26.60;99.90
11112;DHT22;5609;49.466;8.468;2022-07-23T09:02:45;26.50;99.90
11112;DHT22;5609;49.466;8.468;2022-07-23T09:05:13;26.40;99.90
11112;DHT22;5609;49.466;8.468;2022-07-23T09:08:10;26.30;99.90
11112;DHT22;5609;49.466;8.468;2022-07-23T09:10:50;26.40;99.90
11112;DHT22;5609;49.466;8.468;2022-07-23T09:13:27;26.70;99.90
11112;DHT22;5609;49.466;8.468;2022-07-23T09:15:56;26.70;99.90
11112;DHT22;5609;49.466;8.468;2022-07-23T09:18:31;26.80;99.90
11112;DHT22;5609;49.466;8.468;2022-07-23T09:21:16;26.80;99.90
11112;DHT22;5609;49.466;8.468;2022-07-23T09:23:47;26.90;99.90
11112;DHT22;5609;49.466;8.468;2022-07-23T09:29:10;27.10;99.90
11112;DHT22;5609;49.466;8.468;2022-07-23T09:31:48;27.00;99.90
11112;DHT22;5609;49.466;8.468;2022-07-23T09:34:20;26.90;99.90
11112;DHT22;5609;49.466;8.468;2022-07-23T09:36:49;26.90;99.90
11112;DHT22;5609;49.466;8.468;2022-07-23T09:39:26;26.60;99.90
11112;DHT22;5609;49.466;8.468;2022-07-23T09:41:53;26.90;99.90
11112;DHT22;5609;49.466;8.468;2022-07-23T09:44:20;27.00;99.90
11112;DHT22;5609;49.466;8.468;2022-07-23T09:46:49;27.00;99.90
11112;DHT22;5609;49.466;8.468;2022-07-23T09:49:18;27.30;99.90
11112;DHT22;5609;49.466;8.468;2022-07-23T09:51:50;27.20;99.90
11112;DHT22;5609;49.466;8.468;2022-07-23T09:54:27;27.70;99.90
11112;DHT22;5609;49.466;8.468;2022-07-23T09:56:57;28.40;99.90
11112;DHT22;5609;49.466;8.468;2022-07-23T09:59:26;28.80;99.90
11112;DHT22;5609;49.466;8.468;2022-07-23T10:01:55;28.80;99.90
11112;DHT22;5609;49.466;8.468;2022-07-23T10:04:23;28.70;99.90
11112;DHT22;5609;49.466;8.468;2022-07-23T10:06:52;28.70;99.90
11112;DHT22;5609;49.466;8.468;2022-07-23T10:09:25;29.00;99.90
11112;DHT22;5609;49.466;8.468;2022-07-23T10:11:55;29.00;99.90
11112;DHT22;5609;49.466;8.468;2022-07-23T10:14:25;29.10;99.90
11112;DHT22;5609;49.466;8.468;2022-07-23T10:16:53;29.40;99.90
11112;DHT22;5609;49.466;8.468;2022-07-23T10:19:20;29.50;99.90
11112;DHT22;5609;49.466;8.468;2022-07-23T10:21:51;29.40;99.90
11112;DHT22;5609;49.466;8.468;2022-07-23T10:24:28;29.40;99.90
11112;DHT22;5609;49.466;8.468;2022-07-23T10:27:03;29.30;99.90
11112;DHT22;5609;49.466;8.468;2022-07-23T10:29:42;29.20;99.90
11112;DHT22;5609;49.466;8.468;2022-07-23T10:32:19;29.20;99.90
11112;DHT22;5609;49.466;8.468;2022-07-23T10:34:52;29.20;99.90
11112;DHT22;5609;49.466;8.468;2022-07-23T10:37:25;29.60;99.90
11112;DHT22;5609;49.466;8.468;2022-07-23T10:40:12;29.60;99.90
11112;DHT22;5609;49.466;8.468;2022-07-23T10:42:40;30.00;99.30
11112;DHT22;5609;49.466;8.468;2022-07-23T10:45:28;30.20;96.30
11112;DHT22;5609;49.466;8.468;2022-07-23T10:47:55;30.50;94.70
11112;DHT22;5609;49.466;8.468;2022-07-23T10:50:25;30.60;93.70
11112;DHT22;5609;49.466;8.468;2022-07-23T10:53:20;30.80;91.60
11112;DHT22;5609;49.466;8.468;2022-07-23T10:55:50;31.20;87.20
11112;DHT22;5609;49.466;8.468;2022-07-23T10:58:21;31.50;82.40
11112;DHT22;5609;49.466;8.468;2022-07-23T11:00:48;31.60;80.40
11112;DHT22;5609;49.466;8.468;2022-07-23T11:03:32;31.90;74.70
11112;DHT22;5609;49.466;8.468;2022-07-23T11:06:02;32.30;70.70
11112;DHT22;5609;49.466;8.468;2022-07-23T11:08:29;32.50;61.70
11112;DHT22;5609;49.466;8.468;2022-07-23T11:11:09;32.50;59.80
11112;DHT22;5609;49.466;8.468;2022-07-23T11:13:41;32.00;57.80
11112;DHT22;5609;49.466;8.468;2022-07-23T11:16:20;31.10;65.20
11112;DHT22;5609;49.466;8.468;2022-07-23T11:19:07;31.00;66.50
11112;DHT22;5609;49.466;8.468;2022-07-23T11:21:41;31.10;68.00
11112;DHT22;5609;49.466;8.468;2022-07-23T11:24:10;31.70;64.50
11112;DHT22;5609;49.466;8.468;2022-07-23T11:26:43;31.80;59.10
11112;DHT22;5609;49.466;8.468;2022-07-23T11:29:39;32.10;57.30
11112;DHT22;5609;49.466;8.468;2022-07-23T11:32:07;31.90;51.00
11112;DHT22;5609;49.466;8.468;2022-07-23T11:34:36;31.80;50.10
11112;DHT22;5609;49.466;8.468;2022-07-23T11:37:08;31.90;48.70
11112;DHT22;5609;49.466;8.468;2022-07-23T11:39:36;32.00;46.20
11112;DHT22;5609;49.466;8.468;2022-07-23T11:42:06;32.20;44.90
11112;DHT22;5609;49.466;8.468;2022-07-23T11:44:35;32.40;43.60
11112;DHT22;5609;49.466;8.468;2022-07-23T11:47:03;32.50;40.90
11112;DHT22;5609;49.466;8.468;2022-07-23T11:49:31;32.30;39.20
11112;DHT22;5609;49.466;8.468;2022-07-23T11:52:06;32.30;40.20
11112;DHT22;5609;49.466;8.468;2022-07-23T11:54:34;32.30;37.80
11112;DHT22;5609;49.466;8.468;2022-07-23T11:57:03;32.40;37.50
11112;DHT22;5609;49.466;8.468;2022-07-23T11:59:33;32.40;35.10
11112;DHT22;5609;49.466;8.468;2022-07-23T12:02:03;32.50;34.50
11112;DHT22;5609;49.466;8.468;2022-07-23T12:04:37;32.30;34.00
11112;DHT22;5609;49.466;8.468;2022-07-23T12:07:05;32.20;31.90
11112;DHT22;5609;49.466;8.468;2022-07-23T12:09:48;32.20;32.50
11112;DHT22;5609;49.466;8.468;2022-07-23T12:12:15;31.80;33.80
11112;DHT22;5609;49.466;8.468;2022-07-23T12:14:49;31.50;36.80
11112;DHT22;5609;49.466;8.468;2022-07-23T12:17:16;31.30;40.10
11112;DHT22;5609;49.466;8.468;2022-07-23T12:19:43;30.70;41.20
11112;DHT22;5609;49.466;8.468;2022-07-23T12:22:10;30.50;46.60
11112;DHT22;5609;49.466;8.468;2022-07-23T12:24:52;30.50;45.10
11112;DHT22;5609;49.466;8.468;2022-07-23T12:27:21;30.30;44.50
11112;DHT22;5609;49.466;8.468;2022-07-23T12:29:49;29.90;48.00
11112;DHT22;5609;49.466;8.468;2022-07-23T12:32:20;29.60;65.30
11112;DHT22;5609;49.466;8.468;2022-07-23T12:34:49;29.20;99.70
11112;DHT22;5609;49.466;8.468;2022-07-23T12:37:29;28.70;99.90
11112;DHT22;5609;49.466;8.468;2022-07-23T12:39:57;28.20;99.90
11112;DHT22;5609;49.466;8.468;2022-07-23T12:42:24;28.10;99.90
11112;DHT22;5609;49.466;8.468;2022-07-23T12:45:08;28.80;99.90
11112;DHT22;5609;49.466;8.468;2022-07-23T12:48:03;29.50;99.90
11112;DHT22;5609;49.466;8.468;2022-07-23T12:50:42;30.00;99.90
11112;DHT22;5609;49.466;8.468;2022-07-23T12:53:12;30.60;99.90
11112;DHT22;5609;49.466;8.468;2022-07-23T12:55:40;31.20;99.90
11112;DHT22;5609;49.466;8.468;2022-07-23T12:58:10;31.50;99.90
11112;DHT22;5609;49.466;8.468;2022-07-23T13:01:00;31.60;99.90
11112;DHT22;5609;49.466;8.468;2022-07-23T13:03:31;31.70;99.90
11112;DHT22;5609;49.466;8.468;2022-07-23T13:05:59;32.00;99.90
11112;DHT22;5609;49.466;8.468;2022-07-23T13:08:27;32.10;99.90
11112;DHT22;5609;49.466;8.468;2022-07-23T13:10:55;32.60;99.90
11112;DHT22;5609;49.466;8.468;2022-07-23T13:13:23;33.00;91.80
11112;DHT22;5609;49.466;8.468;2022-07-23T13:15:50;32.80;90.80
11112;DHT22;5609;49.466;8.468;2022-07-23T13:18:19;32.30;84.20
11112;DHT22;5609;49.466;8.468;2022-07-23T13:20:47;32.00;86.10
11112;DHT22;5609;49.466;8.468;2022-07-23T13:23:14;31.90;84.80
11112;DHT22;5609;49.466;8.468;2022-07-23T13:25:42;32.00;85.60
11112;DHT22;5609;49.466;8.468;2022-07-23T13:28:09;32.20;81.60
11112;DHT22;5609;49.466;8.468;2022-07-23T13:30:36;32.30;64.00
11112;DHT22;5609;49.466;8.468;2022-07-23T13:33:03;32.10;69.40
11112;DHT22;5609;49.466;8.468;2022-07-23T13:35:33;32.00;68.90
11112;DHT22;5609;49.466;8.468;2022-07-23T13:38:00;31.90;68.00
11112;DHT22;5609;49.466;8.468;2022-07-23T13:40:27;31.90;67.70
11112;DHT22;5609;49.466;8.468;2022-07-23T13:42:54;31.70;72.40
11112;DHT22;5609;49.466;8.468;2022-07-23T13:45:21;31.60;81.50
11112;DHT22;5609;49.466;8.468;2022-07-23T13:47:48;31.60;64.90
11112;DHT22;5609;49.466;8.468;2022-07-23T13:50:15;31.60;78.70
11112;DHT22;5609;49.466;8.468;2022-07-23T13:52:43;31.60;83.70
11112;DHT22;5609;49.466;8.468;2022-07-23T13:55:10;32.10;80.50
11112;DHT22;5609;49.466;8.468;2022-07-23T13:57:38;32.40;67.10
11112;DHT22;5609;49.466;8.468;2022-07-23T14:00:06;33.40;59.50
11112;DHT22;5609;49.466;8.468;2022-07-23T14:02:35;34.30;50.60
11112;DHT22;5609;49.466;8.468;2022-07-23T14:05:03;34.40;43.00
11112;DHT22;5609;49.466;8.468;2022-07-23T14:07:30;34.80;43.50
11112;DHT22;5609;49.466;8.468;2022-07-23T14:12:26;35.40;30.00
11112;DHT22;5609;49.466;8.468;2022-07-23T14:14:53;37.30;17.60
11112;DHT22;5609;49.466;8.468;2022-07-23T14:17:20;37.60;11.50
11112;DHT22;5609;49.466;8.468;2022-07-23T14:19:46;38.00;7.80
11112;DHT22;5609;49.466;8.468;2022-07-23T14:22:13;38.40;3.90
11112;DHT22;5609;49.466;8.468;2022-07-23T14:24:40;38.60;1.20
11112;DHT22;5609;49.466;8.468;2022-07-23T14:27:09;38.30;1.00
11112;DHT22;5609;49.466;8.468;2022-07-23T14:41:52;38.50;1.00
11112;DHT22;5609;49.466;8.468;2022-07-23T15:08:55;40.10;1.00
11112;DHT22;5609;49.466;8.468;2022-07-23T15:11:22;42.40;1.00
11112;DHT22;5609;49.466;8.468;2022-07-23T15:23:38;42.30;1.00
11112;DHT22;5609;49.466;8.468;2022-07-23T15:26:06;43.90;1.00
11112;DHT22;5609;49.466;8.468;2022-07-23T15:28:33;43.70;1.00
11112;DHT22;5609;49.466;8.468;2022-07-23T15:30:59;43.60;1.00
11112;DHT22;5609;49.466;8.468;2022-07-23T15:33:26;42.60;1.00
11112;DHT22;5609;49.466;8.468;2022-07-23T15:35:54;41.30;1.00
11112;DHT22;5609;49.466;8.468;2022-07-23T15:38:24;39.50;1.00
11112;DHT22;5609;49.466;8.468;2022-07-23T15:40:51;38.10;1.00
11112;DHT22;5609;49.466;8.468;2022-07-23T15:43:18;37.10;1.00
11112;DHT22;5609;49.466;8.468;2022-07-23T15:45:44;36.50;1.00
11112;DHT22;5609;49.466;8.468;2022-07-23T15:48:12;36.10;1.00
11112;DHT22;5609;49.466;8.468;2022-07-23T15:50:39;36.20;1.00
11112;DHT22;5609;49.466;8.468;2022-07-23T15:53:07;36.00;1.00
11112;DHT22;5609;49.466;8.468;2022-07-23T15:55:34;35.50;1.00
11112;DHT22;5609;49.466;8.468;2022-07-23T15:58:02;34.80;1.00
11112;DHT22;5609;49.466;8.468;2022-07-23T16:00:29;34.10;1.00
11112;DHT22;5609;49.466;8.468;2022-07-23T16:02:56;34.30;1.00
11112;DHT22;5609;49.466;8.468;2022-07-23T16:05:23;34.40;1.00
11112;DHT22;5609;49.466;8.468;2022-07-23T16:07:49;34.40;1.00
11112;DHT22;5609;49.466;8.468;2022-07-23T16:10:18;34.00;1.00
11112;DHT22;5609;49.466;8.468;2022-07-23T16:12:46;34.40;1.00
11112;DHT22;5609;49.466;8.468;2022-07-23T16:15:13;35.80;1.00
11112;DHT22;5609;49.466;8.468;2022-07-23T16:17:40;36.20;1.00
11112;DHT22;5609;49.466;8.468;2022-07-23T16:20:08;35.50;1.00
11112;DHT22;5609;49.466;8.468;2022-07-23T16:22:35;35.40;1.00
11112;DHT22;5609;49.466;8.468;2022-07-23T16:25:02;36.40;1.00
11112;DHT22;5609;49.466;8.468;2022-07-23T16:27:31;36.80;1.00
11112;DHT22;5609;49.466;8.468;2022-07-23T16:29:58;36.50;1.00
11112;DHT22;5609;49.466;8.468;2022-07-23T16:32:25;35.90;1.00
11112;DHT22;5609;49.466;8.468;2022-07-23T16:34:51;35.20;1.00
11112;DHT22;5609;49.466;8.468;2022-07-23T16:37:18;34.60;1.00
11112;DHT22;5609;49.466;8.468;2022-07-23T16:39:45;34.10;1.00
11112;DHT22;5609;49.466;8.468;2022-07-23T16:42:12;34.10;1.00
11112;DHT22;5609;49.466;8.468;2022-07-23T16:44:40;34.20;1.00
11112;DHT22;5609;49.466;8.468;2022-07-23T16:47:07;33.90;1.00
11112;DHT22;5609;49.466;8.468;2022-07-23T16:49:34;33.60;1.00